createdAt,value
2018-05-17T00:02:00.245Z,11.03
2018-05-17T00:04:27.716Z,12.90
2018-05-17T00:06:55.192Z,11.57
2018-05-17T00:09:22.922Z,12.73
2018-05-17T00:11:50.399Z,14.00
2018-05-17T00:14:17.863Z,12.80
2018-05-17T00:16:45.350Z,12.63
2018-05-17T00:19:13.548Z,12.00
2018-05-17T00:21:41.815Z,12.43
2018-05-17T00:24:10.050Z,14.43
2018-05-17T00:26:37.572Z,11.17
2018-05-17T00:29:05.041Z,11.37
2018-05-17T00:31:32.525Z,12.10
2018-05-17T00:33:59.989Z,10.70
2018-05-17T00:36:27.471Z,10.40
2018-05-17T00:38:55.047Z,12.80
2018-05-17T00:41:22.724Z,10.80
2018-05-17T00:43:50.216Z,12.03
2018-05-17T00:46:18.266Z,10.77
2018-05-17T00:48:45.748Z,11.60
2018-05-17T00:51:13.221Z,11.87
2018-05-17T00:53:40.700Z,12.27
2018-05-17T00:56:08.981Z,11.70
2018-05-17T00:58:37.457Z,11.53
2018-05-17T01:01:05.116Z,12.67
2018-05-17T01:03:32.614Z,10.60
2018-05-17T01:06:00.099Z,12.43
2018-05-17T01:08:27.588Z,9.77
2018-05-17T01:10:55.058Z,9.03
2018-05-17T01:13:22.545Z,8.80
2018-05-17T01:15:50.057Z,8.60
2018-05-17T01:18:17.550Z,9.23
2018-05-17T01:20:45.030Z,8.33
2018-05-17T01:23:12.507Z,8.23
2018-05-17T01:25:39.973Z,9.43
2018-05-17T01:28:07.458Z,7.80
2018-05-17T01:30:34.939Z,7.37
2018-05-17T01:33:03.186Z,6.43
2018-05-17T01:35:30.796Z,10.27
2018-05-17T01:38:09.924Z,6.73
2018-05-17T01:40:37.804Z,7.47
2018-05-17T01:43:05.265Z,7.70
2018-05-17T01:45:32.868Z,8.13
2018-05-17T01:48:00.336Z,7.63
2018-05-17T01:50:27.864Z,6.00
2018-05-17T01:52:55.344Z,7.77
2018-05-17T01:55:22.838Z,8.20
2018-05-17T01:57:50.349Z,7.00
2018-05-17T02:00:17.840Z,7.33
2018-05-17T02:02:45.309Z,8.10
2018-05-17T02:05:13.798Z,6.60
2018-05-17T02:07:42.038Z,9.57
2018-05-17T02:10:09.532Z,5.33
2018-05-17T02:12:37.797Z,7.63
2018-05-17T02:15:05.359Z,6.70
2018-05-17T02:17:32.812Z,7.10
2018-05-17T02:20:01.113Z,6.10
2018-05-17T02:22:29.340Z,6.77
2018-05-17T02:24:56.846Z,7.30
2018-05-17T02:27:25.070Z,6.30
2018-05-17T02:29:52.549Z,6.53
2018-05-17T02:32:21.546Z,8.10
2018-05-17T02:34:49.017Z,6.80
2018-05-17T02:37:16.573Z,8.30
2018-05-17T02:39:43.978Z,5.63
2018-05-17T02:42:11.468Z,9.73
2018-05-17T02:44:38.943Z,8.40
2018-05-17T02:47:06.422Z,10.83
2018-05-17T02:49:34.694Z,10.43
2018-05-17T02:52:03.209Z,8.53
2018-05-17T02:54:30.659Z,7.53
2018-05-17T02:56:58.139Z,9.90
2018-05-17T02:59:25.611Z,8.80
2018-05-17T03:01:53.113Z,9.13
2018-05-17T03:04:21.397Z,9.30
2018-05-17T03:06:49.641Z,8.60
2018-05-17T03:09:17.123Z,8.30
2018-05-17T03:11:44.600Z,8.10
2018-05-17T03:14:12.868Z,9.23
2018-05-17T03:16:41.137Z,7.90
2018-05-17T03:19:08.880Z,8.53
2018-05-17T03:21:36.357Z,8.80
2018-05-17T03:24:03.842Z,8.70
2018-05-17T03:26:31.311Z,8.80
2018-05-17T03:28:58.794Z,8.93
2018-05-17T03:31:26.267Z,10.07
2018-05-17T03:33:53.752Z,8.43
2018-05-17T03:36:22.002Z,7.90
2018-05-17T03:38:49.484Z,8.53
2018-05-17T03:41:17.008Z,7.50
2018-05-17T03:43:44.923Z,7.43
2018-05-17T03:46:13.172Z,8.00
2018-05-17T03:48:40.652Z,11.20
2018-05-17T03:51:08.912Z,7.47
2018-05-17T03:53:37.896Z,7.57
2018-05-17T03:56:05.368Z,7.63
2018-05-17T03:58:32.982Z,7.40
2018-05-17T04:01:12.450Z,6.83
2018-05-17T04:03:51.956Z,7.33
2018-05-17T04:06:31.414Z,8.33
2018-05-17T04:08:58.909Z,8.10
2018-05-17T04:11:26.416Z,7.63
2018-05-17T04:13:53.896Z,9.07
2018-05-17T04:16:21.381Z,8.40
2018-05-17T04:18:48.861Z,9.30
2018-05-17T04:21:17.106Z,8.20
2018-05-17T04:23:45.234Z,9.17
2018-05-17T04:26:12.703Z,8.93
2018-05-17T04:28:40.178Z,9.00
2018-05-17T04:31:07.681Z,8.97
2018-05-17T04:33:35.144Z,7.53
2018-05-17T04:36:03.599Z,7.23
2018-05-17T04:38:31.081Z,8.13
2018-05-17T04:40:59.345Z,7.03
2018-05-17T04:43:26.808Z,7.63
2018-05-17T04:45:54.313Z,8.20
2018-05-17T04:48:21.787Z,7.13
2018-05-17T04:50:49.264Z,8.03
2018-05-17T04:53:16.739Z,10.30
2018-05-17T04:55:44.206Z,6.80
2018-05-17T04:58:11.714Z,7.20
2018-05-17T05:00:39.197Z,6.50
2018-05-17T05:03:06.799Z,8.37
2018-05-17T05:05:35.058Z,7.97
2018-05-17T05:08:02.629Z,6.63
2018-05-17T05:10:30.049Z,7.67
2018-05-17T05:12:57.515Z,10.57
2018-05-17T05:15:24.978Z,7.10
2018-05-17T05:17:52.443Z,8.73
2018-05-17T05:20:19.919Z,7.23
2018-05-17T05:22:48.340Z,5.83
2018-05-17T05:25:15.958Z,7.03
2018-05-17T05:27:43.424Z,7.97
2018-05-17T05:30:10.897Z,8.40
2018-05-17T05:32:39.163Z,7.30
2018-05-17T05:35:06.665Z,6.60
2018-05-17T05:37:34.227Z,8.67
2018-05-17T05:40:02.466Z,7.17
2018-05-17T05:42:30.704Z,9.23
2018-05-17T05:44:58.298Z,7.67
2018-05-17T05:47:26.575Z,7.33
2018-05-17T05:49:54.053Z,6.83
2018-05-17T05:52:21.529Z,7.67
2018-05-17T05:54:49.160Z,6.67
2018-05-17T05:57:17.424Z,7.20
2018-05-17T05:59:45.000Z,7.90
2018-05-17T06:02:13.250Z,8.13
2018-05-17T06:04:42.249Z,6.87
2018-05-17T06:07:09.728Z,6.70
2018-05-17T06:09:38.128Z,8.07
2018-05-17T06:12:05.631Z,7.23
2018-05-17T06:14:33.097Z,7.93
2018-05-17T06:17:00.563Z,7.63
2018-05-17T06:19:28.041Z,8.47
2018-05-17T06:21:56.279Z,8.43
2018-05-17T06:24:23.767Z,9.30
2018-05-17T06:26:51.266Z,9.53
2018-05-17T06:29:18.750Z,8.77
2018-05-17T06:31:46.926Z,9.07
2018-05-17T06:34:14.412Z,8.10
2018-05-17T06:36:41.941Z,10.27
2018-05-17T06:39:09.421Z,8.10
2018-05-17T06:41:36.931Z,8.40
2018-05-17T06:44:04.525Z,8.40
2018-05-17T06:46:31.988Z,8.60
2018-05-17T06:48:59.592Z,11.43
2018-05-17T06:51:27.894Z,8.53
2018-05-17T06:53:56.542Z,8.60
2018-05-17T06:56:24.815Z,8.10
2018-05-17T06:58:52.346Z,7.60
2018-05-17T07:01:19.896Z,7.40
2018-05-17T07:03:47.401Z,7.90
2018-05-17T07:06:14.914Z,7.90
2018-05-17T07:08:42.470Z,9.23
2018-05-17T07:11:10.247Z,8.03
2018-05-17T07:13:37.826Z,9.10
2018-05-17T07:16:06.694Z,9.00
2018-05-17T07:18:34.451Z,8.87
2018-05-17T07:21:01.808Z,9.17
2018-05-17T07:23:29.332Z,8.47
2018-05-17T07:25:57.672Z,8.67
2018-05-17T07:28:25.391Z,9.37
2018-05-17T07:30:54.916Z,8.97
2018-05-17T07:33:22.583Z,10.43
2018-05-17T07:35:50.517Z,8.87
2018-05-17T07:38:19.528Z,9.70
2018-05-17T07:40:47.732Z,7.20
2018-05-17T07:43:15.347Z,8.60
2018-05-17T07:45:43.658Z,8.23
2018-05-17T07:48:11.221Z,7.20
2018-05-17T07:50:38.804Z,8.03
2018-05-17T07:53:06.305Z,8.67
2018-05-17T07:55:35.431Z,8.70
2018-05-17T07:58:02.903Z,9.20
2018-05-17T08:00:30.916Z,7.80
2018-05-17T08:02:58.501Z,8.17
2018-05-17T08:05:26.763Z,6.03
2018-05-17T08:07:54.878Z,6.87
2018-05-17T08:10:22.389Z,8.13
2018-05-17T08:12:49.895Z,8.57
2018-05-17T08:15:17.394Z,8.63
2018-05-17T08:17:44.932Z,8.63
2018-05-17T08:20:12.533Z,9.20
2018-05-17T08:22:40.789Z,7.70
2018-05-17T08:25:08.292Z,7.60
2018-05-17T08:27:36.539Z,8.37
2018-05-17T08:30:04.066Z,7.90
2018-05-17T08:32:31.547Z,7.77
2018-05-17T08:34:59.032Z,7.20
2018-05-17T08:37:27.284Z,8.10
2018-05-17T08:39:54.760Z,8.63
2018-05-17T08:42:23.340Z,7.33
2018-05-17T08:44:50.812Z,7.50
2018-05-17T08:47:19.076Z,7.20
2018-05-17T08:49:46.548Z,6.80
2018-05-17T08:52:14.809Z,7.87
2018-05-17T08:54:42.532Z,6.87
2018-05-17T08:57:10.010Z,6.97
2018-05-17T08:59:37.637Z,7.53
2018-05-17T09:02:05.861Z,7.73
2018-05-17T09:04:33.551Z,7.30
2018-05-17T09:07:01.812Z,7.60
2018-05-17T09:09:29.291Z,7.23
2018-05-17T09:11:56.915Z,8.90
2018-05-17T09:14:24.541Z,8.30
2018-05-17T09:16:52.050Z,8.53
2018-05-17T09:19:19.537Z,8.47
2018-05-17T09:21:46.994Z,7.60
2018-05-17T09:24:14.726Z,7.70
2018-05-17T09:26:42.264Z,8.77
2018-05-17T09:29:10.474Z,8.57
2018-05-17T09:31:38.736Z,9.00
2018-05-17T09:34:06.237Z,9.17
2018-05-17T09:36:33.731Z,8.83
2018-05-17T09:39:01.212Z,8.20
2018-05-17T09:41:28.764Z,7.50
2018-05-17T09:43:56.185Z,8.13
2018-05-17T09:46:24.056Z,8.70
2018-05-17T09:48:51.565Z,8.60
2018-05-17T09:51:19.043Z,10.07
2018-05-17T09:53:47.307Z,8.40
2018-05-17T09:56:14.788Z,8.80
2018-05-17T09:58:42.279Z,8.37
2018-05-17T10:01:13.301Z,7.90
2018-05-17T10:03:40.765Z,7.57
2018-05-17T10:06:10.161Z,8.50
2018-05-17T10:08:37.644Z,7.00
2018-05-17T10:11:05.124Z,7.33
2018-05-17T10:13:34.113Z,6.40
2018-05-17T10:16:02.601Z,7.63
2018-05-17T10:18:30.089Z,8.23
2018-05-17T10:20:58.358Z,8.03
2018-05-17T10:23:25.817Z,6.83
2018-05-17T10:25:54.152Z,8.27
2018-05-17T10:28:22.365Z,6.97
2018-05-17T10:30:49.841Z,7.90
2018-05-17T10:33:18.084Z,8.50
2018-05-17T10:35:46.481Z,8.00
2018-05-17T10:38:13.980Z,8.23
2018-05-17T10:40:43.473Z,8.80
2018-05-17T10:43:11.713Z,8.10
2018-05-17T10:45:39.221Z,8.90
2018-05-17T10:48:06.692Z,8.00
2018-05-17T10:50:34.164Z,9.20
2018-05-17T10:53:01.641Z,7.50
2018-05-17T10:55:29.910Z,7.70
2018-05-17T10:57:57.701Z,7.57
2018-05-17T11:00:25.232Z,7.83
2018-05-17T11:02:52.699Z,8.07
2018-05-17T11:05:20.214Z,8.50
2018-05-17T11:07:47.743Z,8.27
2018-05-17T11:10:16.005Z,7.03
2018-05-17T11:12:43.553Z,7.37
2018-05-17T11:15:11.272Z,8.20
2018-05-17T11:17:38.893Z,7.17
2018-05-17T11:20:06.353Z,8.10
2018-05-17T11:22:33.874Z,7.37
2018-05-17T11:25:01.430Z,6.50
2018-05-17T11:27:28.926Z,7.00
2018-05-17T11:29:56.407Z,6.97
2018-05-17T11:32:25.062Z,7.37
2018-05-17T11:34:52.545Z,6.93
2018-05-17T11:37:20.800Z,7.07
2018-05-17T11:39:48.325Z,7.90
2018-05-17T11:42:15.821Z,6.83
2018-05-17T11:44:43.840Z,7.53
2018-05-17T11:47:11.336Z,7.03
2018-05-17T11:49:38.869Z,7.60
2018-05-17T11:52:06.531Z,7.07
2018-05-17T11:54:34.183Z,6.63
2018-05-17T11:57:01.674Z,7.40
2018-05-17T11:59:29.240Z,7.20
2018-05-17T12:01:56.720Z,7.77
2018-05-17T12:04:24.818Z,7.20
2018-05-17T12:06:53.077Z,7.03
2018-05-17T12:09:21.657Z,6.70
2018-05-17T12:11:49.151Z,6.30
2018-05-17T12:14:17.404Z,6.60
2018-05-17T12:16:45.739Z,9.13
2018-05-17T12:19:13.245Z,8.63
2018-05-17T12:21:40.798Z,8.37
2018-05-17T12:24:10.038Z,7.30
2018-05-17T12:26:37.438Z,7.40
2018-05-17T12:29:05.078Z,8.33
2018-05-17T12:31:32.575Z,9.20
2018-05-17T12:34:00.132Z,7.80
2018-05-17T12:36:28.409Z,8.20
2018-05-17T12:38:55.902Z,8.17
2018-05-17T12:41:23.412Z,7.93
2018-05-17T12:43:51.051Z,7.03
2018-05-17T12:46:18.524Z,6.60
2018-05-17T12:48:46.245Z,6.63
2018-05-17T12:51:13.814Z,7.23
2018-05-17T12:53:41.311Z,8.10
2018-05-17T12:56:08.806Z,7.47
2018-05-17T12:58:37.117Z,7.40
2018-05-17T13:01:04.578Z,7.87
2018-05-17T13:03:32.054Z,7.70
2018-05-17T13:05:59.807Z,7.40
2018-05-17T13:08:27.140Z,7.87
2018-05-17T13:10:55.397Z,7.93
2018-05-17T13:13:23.689Z,9.17
2018-05-17T13:15:51.916Z,7.70
2018-05-17T13:18:19.401Z,9.20
2018-05-17T13:20:47.661Z,8.33
2018-05-17T13:23:15.142Z,10.10
2018-05-17T13:25:42.646Z,8.70
2018-05-17T13:28:10.138Z,9.23
2018-05-17T13:30:37.636Z,8.37
2018-05-17T13:33:05.971Z,9.67
2018-05-17T13:35:33.468Z,9.87
2018-05-17T13:38:01.750Z,9.23
2018-05-17T13:40:29.970Z,7.60
2018-05-17T13:42:57.494Z,7.87
2018-05-17T13:45:25.753Z,9.27
2018-05-17T13:47:54.081Z,7.53
2018-05-17T13:50:22.328Z,7.73
2018-05-17T13:52:49.799Z,8.07
2018-05-17T13:55:17.348Z,8.07
2018-05-17T13:57:45.613Z,7.37
2018-05-17T14:00:14.483Z,7.53
2018-05-17T14:02:42.036Z,7.00
2018-05-17T14:05:09.498Z,8.17
2018-05-17T14:07:36.973Z,8.27
2018-05-17T14:10:05.438Z,6.53
2018-05-17T14:12:32.936Z,8.67
2018-05-17T14:15:00.425Z,8.50
2018-05-17T14:17:27.923Z,8.43
2018-05-17T14:19:55.386Z,7.77
2018-05-17T14:22:23.678Z,7.30
2018-05-17T14:24:51.945Z,7.77
2018-05-17T14:27:20.211Z,6.53
2018-05-17T14:29:48.471Z,8.63
2018-05-17T14:32:16.434Z,7.03
2018-05-17T14:34:43.945Z,8.33
2018-05-17T14:37:11.430Z,7.70
2018-05-17T14:39:38.952Z,8.20
2018-05-17T14:42:06.485Z,6.87
2018-05-17T14:44:34.740Z,7.37
2018-05-17T14:47:02.271Z,7.67
2018-05-17T14:49:29.759Z,6.03
2018-05-17T14:51:57.274Z,7.10
2018-05-17T14:54:25.865Z,6.77
2018-05-17T14:56:53.354Z,7.60
2018-05-17T14:59:20.832Z,8.20
2018-05-17T15:01:48.304Z,7.50
2018-05-17T15:04:15.830Z,5.70
2018-05-17T15:06:43.310Z,6.13
2018-05-17T15:09:10.851Z,8.53
2018-05-17T15:11:38.362Z,6.93
2018-05-17T15:14:06.702Z,6.80
2018-05-17T15:16:34.201Z,6.47
2018-05-17T15:19:02.467Z,5.67
2018-05-17T15:21:29.947Z,5.83
2018-05-17T15:23:58.211Z,9.20
2018-05-17T15:26:26.461Z,6.00
2018-05-17T15:28:53.956Z,6.83
2018-05-17T15:31:22.233Z,5.73
2018-05-17T15:33:50.534Z,8.10
2018-05-17T15:36:18.893Z,7.00
2018-05-17T15:38:47.258Z,7.37
2018-05-17T15:41:15.511Z,6.57
2018-05-17T15:43:43.053Z,6.00
2018-05-17T15:46:10.548Z,6.47
2018-05-17T15:48:38.026Z,6.50
2018-05-17T15:51:06.549Z,5.67
2018-05-17T15:53:34.044Z,6.03
2018-05-17T15:56:01.589Z,6.60
2018-05-17T15:58:29.106Z,6.17
2018-05-17T16:00:56.616Z,6.40
2018-05-17T16:03:24.105Z,5.37
2018-05-17T16:05:51.596Z,5.50
2018-05-17T16:08:19.117Z,7.90
2018-05-17T16:10:47.363Z,5.50
2018-05-17T16:13:14.843Z,6.40
2018-05-17T16:15:42.448Z,6.53
2018-05-17T16:18:10.693Z,6.10
2018-05-17T16:20:39.334Z,4.70
2018-05-17T16:23:06.851Z,5.57
2018-05-17T16:25:34.362Z,4.83
2018-05-17T16:28:01.901Z,5.27
2018-05-17T16:30:29.510Z,5.23
2018-05-17T16:32:57.135Z,6.10
2018-05-17T16:35:25.114Z,6.00
2018-05-17T16:37:53.046Z,4.73
2018-05-17T16:40:20.748Z,6.07
2018-05-17T16:42:48.559Z,5.30
2018-05-17T16:45:15.988Z,6.03
2018-05-17T16:47:43.481Z,5.70
2018-05-17T16:50:10.992Z,6.03
2018-05-17T16:52:38.803Z,7.10
2018-05-17T16:55:07.554Z,6.23
2018-05-17T16:57:35.035Z,6.40
2018-05-17T17:00:03.452Z,6.03
2018-05-17T17:02:30.995Z,6.53
2018-05-17T17:05:00.140Z,7.03
2018-05-17T17:07:27.836Z,5.17
2018-05-17T17:09:56.077Z,6.83
2018-05-17T17:12:24.160Z,6.00
2018-05-17T17:14:51.641Z,4.90
2018-05-17T17:17:19.228Z,6.60
2018-05-17T17:19:46.883Z,5.47
2018-05-17T17:22:15.742Z,5.40
2018-05-17T17:24:46.643Z,5.50
2018-05-17T17:27:14.233Z,5.97
2018-05-17T17:29:42.511Z,6.83
2018-05-17T17:32:10.014Z,8.50
2018-05-17T17:34:38.302Z,6.27
2018-05-17T17:37:05.969Z,6.50
2018-05-17T17:39:33.581Z,6.60
2018-05-17T17:42:01.266Z,5.50
2018-05-17T17:44:29.523Z,6.60
2018-05-17T17:46:57.016Z,5.70
2018-05-17T17:49:25.309Z,5.27
2018-05-17T17:51:53.536Z,5.30
2018-05-17T17:54:21.016Z,6.20
2018-05-17T17:56:49.290Z,5.93
2018-05-17T17:59:17.517Z,7.10
2018-05-17T18:01:45.030Z,6.03
2018-05-17T18:04:13.261Z,7.00
2018-05-17T18:06:40.724Z,6.90
2018-05-17T18:09:08.209Z,6.43
2018-05-17T18:11:35.678Z,5.93
2018-05-17T18:14:03.942Z,6.07
2018-05-17T18:16:31.414Z,5.20
2018-05-17T18:18:58.928Z,5.80
2018-05-17T18:21:31.417Z,6.50
2018-05-17T18:23:59.755Z,6.40
2018-05-17T18:26:28.703Z,6.10
2018-05-17T18:28:56.233Z,5.47
2018-05-17T18:31:23.717Z,6.60
2018-05-17T18:33:52.264Z,6.90
2018-05-17T18:36:19.942Z,6.37
2018-05-17T18:38:47.442Z,6.60
2018-05-17T18:41:14.973Z,6.83
2018-05-17T18:43:42.464Z,7.80
2018-05-17T18:46:09.946Z,6.27
2018-05-17T18:48:37.573Z,6.67
2018-05-17T18:51:05.059Z,6.73
2018-05-17T18:53:33.445Z,6.20
2018-05-17T18:56:01.854Z,6.53
2018-05-17T18:58:29.342Z,6.43
2018-05-17T19:00:56.856Z,6.30
2018-05-17T19:03:25.451Z,7.40
2018-05-17T19:05:53.289Z,6.30
2018-05-17T19:08:20.895Z,6.40
2018-05-17T19:10:48.487Z,8.00
2018-05-17T19:13:15.949Z,6.50
2018-05-17T19:15:43.431Z,7.63
2018-05-17T19:18:11.677Z,7.23
2018-05-17T19:20:39.239Z,7.43
2018-05-17T19:23:07.153Z,8.03
2018-05-17T19:25:34.798Z,6.90
2018-05-17T19:28:02.339Z,7.43
2018-05-17T19:30:36.556Z,6.43
2018-05-17T19:33:07.411Z,7.17
2018-05-17T19:35:36.060Z,6.47
2018-05-17T19:38:04.370Z,7.37
2018-05-17T19:40:32.727Z,7.00
2018-05-17T19:43:00.335Z,7.57
2018-05-17T19:45:27.879Z,9.10
2018-05-17T19:47:58.117Z,6.90
2018-05-17T19:50:26.108Z,7.63
2018-05-17T19:52:54.290Z,7.63
2018-05-17T19:55:22.323Z,7.27
2018-05-17T19:57:51.020Z,8.23
2018-05-17T20:00:18.972Z,6.90
2018-05-17T20:02:47.611Z,6.23
2018-05-17T20:05:15.201Z,7.33
2018-05-17T20:07:42.815Z,10.40
2018-05-17T20:10:10.325Z,8.30
2018-05-17T20:12:37.843Z,6.87
2018-05-17T20:15:05.357Z,6.67
2018-05-17T20:17:33.103Z,6.50
2018-05-17T20:20:00.597Z,7.70
2018-05-17T20:22:28.907Z,7.73
2018-05-17T20:24:56.704Z,7.90
2018-05-17T20:27:24.719Z,6.97
2018-05-17T20:29:52.582Z,7.10
2018-05-17T20:32:20.810Z,8.07
2018-05-17T20:34:48.293Z,9.50
2018-05-17T20:37:15.789Z,6.90
2018-05-17T20:39:43.540Z,8.17
2018-05-17T20:42:11.872Z,7.93
2018-05-17T20:44:39.384Z,7.67
2018-05-17T20:47:07.645Z,7.20
2018-05-17T20:49:35.903Z,8.13
2018-05-17T20:52:03.461Z,8.90
2018-05-17T20:54:30.931Z,8.23
2018-05-17T20:56:58.419Z,7.97
2018-05-17T20:59:26.866Z,7.87
2018-05-17T21:01:54.359Z,8.30
2018-05-17T21:04:22.615Z,7.83
2018-05-17T21:06:50.859Z,8.97
2018-05-17T21:09:18.337Z,8.40
2018-05-17T21:11:45.814Z,7.50
2018-05-17T21:14:14.139Z,9.67
2018-05-17T21:16:41.653Z,9.13
2018-05-17T21:19:09.897Z,10.43
2018-05-17T21:21:37.374Z,8.80
2018-05-17T21:24:04.836Z,8.97
2018-05-17T21:26:32.392Z,8.17
2018-05-17T21:28:59.853Z,8.50
2018-05-17T21:31:27.375Z,9.23
2018-05-17T21:33:54.926Z,8.40
2018-05-17T21:36:22.545Z,10.87
2018-05-17T21:38:50.809Z,11.03
2018-05-17T21:41:18.348Z,8.87
2018-05-17T21:43:46.001Z,9.70
2018-05-17T21:46:13.634Z,9.40
2018-05-17T21:48:41.102Z,9.13
2018-05-17T21:51:08.585Z,10.83
2018-05-17T21:53:36.094Z,10.47
2018-05-17T21:56:04.360Z,10.50
2018-05-17T21:58:32.639Z,10.97
2018-05-17T22:01:00.910Z,11.20
2018-05-17T22:03:28.384Z,9.77
2018-05-17T22:05:56.633Z,11.53
2018-05-17T22:08:24.103Z,10.87
2018-05-17T22:10:52.370Z,9.77
2018-05-17T22:13:21.341Z,10.73
2018-05-17T22:15:48.854Z,9.53
2018-05-17T22:18:17.088Z,13.03
2018-05-17T22:20:44.772Z,10.23
2018-05-17T22:23:12.245Z,10.57
2018-05-17T22:25:40.507Z,11.10
2018-05-17T22:28:07.974Z,11.23
2018-05-17T22:30:36.250Z,12.90
2018-05-17T22:33:03.725Z,10.77
2018-05-17T22:35:32.006Z,11.80
2018-05-17T22:37:59.523Z,12.97
2018-05-17T22:40:27.063Z,10.63
2018-05-17T22:42:54.549Z,12.03
2018-05-17T22:45:22.051Z,11.83
2018-05-17T22:47:49.529Z,12.10
2018-05-17T22:50:17.018Z,11.17
2018-05-17T22:52:44.522Z,10.87
2018-05-17T22:55:12.015Z,12.53
2018-05-17T22:57:51.371Z,12.13
2018-05-17T23:00:18.848Z,10.57
2018-05-17T23:02:46.349Z,11.80
2018-05-17T23:05:13.836Z,10.30
2018-05-17T23:07:41.329Z,11.70
2018-05-17T23:10:09.624Z,11.90
2018-05-17T23:12:37.978Z,11.57
2018-05-17T23:15:06.251Z,9.97
2018-05-17T23:17:34.528Z,11.23
2018-05-17T23:20:03.513Z,10.40
2018-05-17T23:22:37.338Z,12.03
2018-05-17T23:25:04.850Z,10.03
2018-05-17T23:27:32.542Z,11.13
2018-05-17T23:30:00.028Z,12.57
2018-05-17T23:32:28.311Z,13.10
2018-05-17T23:34:56.573Z,14.23
2018-05-17T23:37:24.273Z,10.50
2018-05-17T23:39:51.708Z,10.50
2018-05-17T23:42:19.980Z,11.80
2018-05-17T23:44:48.296Z,14.53
2018-05-17T23:47:16.529Z,10.90
2018-05-17T23:49:44.017Z,12.33
2018-05-17T23:52:11.511Z,10.47
2018-05-17T23:54:38.993Z,11.60
2018-05-17T23:57:06.547Z,11.00
2018-05-17T23:59:34.068Z,12.47
